createdAt,value
2024-02-05T00:00:31.708Z,0.99
2024-02-05T00:01:31.811Z,0.95
2024-02-05T00:02:31.784Z,0.65
2024-02-05T00:03:31.827Z,0.56
2024-02-05T00:04:31.946Z,0.78
2024-02-05T00:05:31.898Z,0.83
2024-02-05T00:06:31.955Z,0.90
2024-02-05T00:07:32.199Z,0.79
2024-02-05T00:08:32.019Z,0.91
2024-02-05T00:09:32.065Z,0.79
2024-02-05T00:10:32.102Z,0.64
2024-02-05T00:11:32.142Z,0.87
2024-02-05T00:12:32.185Z,0.92
2024-02-05T00:13:32.229Z,0.84
2024-02-05T00:14:32.270Z,0.99
2024-02-05T00:15:32.321Z,0.79
2024-02-05T00:16:32.343Z,0.73
2024-02-05T00:17:32.406Z,0.82
2024-02-05T00:18:32.463Z,0.90
2024-02-05T00:19:32.577Z,1.00
2024-02-05T00:20:32.513Z,0.85
2024-02-05T00:21:32.536Z,0.56
2024-02-05T00:22:32.590Z,0.81
2024-02-05T00:23:32.692Z,0.95
2024-02-05T00:24:32.684Z,0.86
2024-02-05T00:25:32.717Z,0.63
2024-02-05T00:26:32.760Z,0.62
2024-02-05T00:27:32.812Z,0.96
2024-02-05T00:28:32.850Z,1.05
2024-02-05T00:29:32.886Z,0.86
2024-02-05T00:30:32.959Z,0.90
2024-02-05T00:31:32.998Z,0.95
2024-02-05T00:32:33.081Z,0.76
2024-02-05T00:33:33.102Z,1.10
2024-02-05T00:34:33.162Z,0.80
2024-02-05T00:35:33.119Z,0.95
2024-02-05T00:36:33.182Z,0.86
2024-02-05T00:37:33.210Z,0.86
2024-02-05T00:38:33.254Z,0.83
2024-02-05T00:39:33.283Z,0.64
2024-02-05T00:40:33.332Z,0.81
2024-02-05T00:41:33.365Z,0.82
2024-02-05T00:42:33.385Z,0.85
2024-02-05T00:43:33.423Z,0.78
2024-02-05T00:44:33.464Z,1.09
2024-02-05T00:45:33.532Z,0.74
2024-02-05T00:46:33.576Z,0.69
2024-02-05T00:47:33.599Z,0.80
2024-02-05T00:48:33.665Z,0.63
2024-02-05T00:49:33.723Z,0.64
2024-02-05T00:50:33.673Z,0.75
2024-02-05T00:51:33.708Z,0.76
2024-02-05T00:52:33.769Z,0.80
2024-02-05T00:53:33.783Z,0.82
2024-02-05T00:54:33.822Z,0.96
2024-02-05T00:55:33.869Z,0.96
2024-02-05T00:56:33.895Z,0.79
2024-02-05T00:57:33.935Z,0.82
2024-02-05T00:58:33.972Z,0.72
2024-02-05T00:59:34.012Z,0.82
2024-02-05T01:00:34.059Z,0.75
2024-02-05T01:01:34.197Z,1.15
2024-02-05T01:02:34.140Z,0.82
2024-02-05T01:03:34.196Z,0.84
2024-02-05T01:04:34.329Z,0.61
2024-02-05T01:05:34.654Z,0.75
2024-02-05T01:06:34.475Z,0.62
2024-02-05T01:07:34.443Z,0.99
2024-02-05T01:08:34.384Z,0.69
2024-02-05T01:09:34.432Z,1.15
2024-02-05T01:10:34.448Z,0.80
2024-02-05T01:11:34.496Z,1.00
2024-02-05T01:12:34.522Z,0.96
2024-02-05T01:13:34.604Z,0.75
2024-02-05T01:14:34.642Z,0.75
2024-02-05T01:15:34.672Z,0.71
2024-02-05T01:16:34.701Z,1.11
2024-02-05T01:17:34.768Z,0.98
2024-02-05T01:18:34.812Z,0.83
2024-02-05T01:19:34.858Z,0.79
2024-02-05T01:20:34.856Z,0.85
2024-02-05T01:21:34.907Z,0.92
2024-02-05T01:22:34.938Z,0.81
2024-02-05T01:23:34.988Z,0.73
2024-02-05T01:24:35.058Z,0.58
2024-02-05T01:25:35.073Z,0.88
2024-02-05T01:26:35.109Z,0.98
2024-02-05T01:27:35.231Z,0.72
2024-02-05T01:28:35.202Z,1.09
2024-02-05T01:29:35.234Z,0.76
2024-02-05T01:30:35.501Z,0.78
2024-02-05T01:31:35.326Z,0.78
2024-02-05T01:32:35.347Z,0.99
2024-02-05T01:33:35.483Z,0.81
2024-02-05T01:34:35.568Z,0.61
2024-02-05T01:35:35.482Z,0.94
2024-02-05T01:36:35.539Z,0.86
2024-02-05T01:37:35.525Z,0.85
2024-02-05T01:38:35.570Z,0.73
2024-02-05T01:39:35.634Z,0.77
2024-02-05T01:40:35.702Z,0.74
2024-02-05T01:41:35.673Z,0.65
2024-02-05T01:42:35.842Z,0.87
2024-02-05T01:43:35.762Z,1.04
2024-02-05T01:44:35.796Z,0.89
2024-02-05T01:45:36.020Z,0.77
2024-02-05T01:46:35.865Z,0.85
2024-02-05T01:47:35.979Z,0.81
2024-02-05T01:48:36.149Z,0.91
2024-02-05T01:49:36.104Z,0.72
2024-02-05T01:50:36.006Z,0.91
2024-02-05T01:51:36.045Z,0.92
2024-02-05T01:52:36.097Z,0.72
2024-02-05T01:53:36.112Z,0.82
2024-02-05T01:54:36.177Z,0.92
2024-02-05T01:55:36.183Z,0.97
2024-02-05T01:56:36.238Z,0.73
2024-02-05T01:57:36.317Z,0.91
2024-02-05T01:58:36.302Z,0.84
2024-02-05T01:59:36.336Z,0.96
2024-02-05T02:00:36.437Z,0.93
2024-02-05T02:01:36.491Z,0.77
2024-02-05T02:02:36.449Z,0.80
2024-02-05T02:03:36.563Z,0.83
2024-02-05T02:04:36.623Z,0.79
2024-02-05T02:05:36.591Z,0.80
2024-02-05T02:06:36.623Z,0.90
2024-02-05T02:07:36.629Z,0.84
2024-02-05T02:08:36.664Z,0.84
2024-02-05T02:09:36.745Z,0.86
2024-02-05T02:10:36.766Z,0.72
2024-02-05T02:11:36.785Z,0.74
2024-02-05T02:12:36.904Z,0.86
2024-02-05T02:13:36.852Z,0.75
2024-02-05T02:14:36.896Z,0.91
2024-02-05T02:15:37.064Z,0.70
2024-02-05T02:16:36.989Z,0.92
2024-02-05T02:17:37.064Z,0.78
2024-02-05T02:18:37.110Z,0.60
2024-02-05T02:19:37.181Z,0.78
2024-02-05T02:20:37.123Z,0.85
2024-02-05T02:21:37.183Z,0.92
2024-02-05T02:22:37.196Z,0.86
2024-02-05T02:23:37.232Z,0.57
2024-02-05T02:24:37.372Z,0.88
2024-02-05T02:25:37.352Z,0.83
2024-02-05T02:26:37.351Z,0.73
2024-02-05T02:27:37.419Z,0.82
2024-02-05T02:28:37.420Z,0.73
2024-02-05T02:29:37.468Z,1.03
2024-02-05T02:30:37.554Z,0.88
2024-02-05T02:31:37.548Z,0.71
2024-02-05T02:32:37.607Z,1.05
2024-02-05T02:33:37.669Z,0.76
2024-02-05T02:34:37.724Z,1.27
2024-02-05T02:35:37.750Z,0.74
2024-02-05T02:36:37.782Z,0.52
2024-02-05T02:37:37.829Z,1.05
2024-02-05T02:38:37.853Z,1.05
2024-02-05T02:39:37.909Z,0.90
2024-02-05T02:40:37.944Z,0.72
2024-02-05T02:41:37.993Z,0.77
2024-02-05T02:42:38.071Z,0.93
2024-02-05T02:43:38.098Z,0.93
2024-02-05T02:44:38.142Z,0.82
2024-02-05T02:45:38.281Z,0.71
2024-02-05T02:46:38.201Z,0.82
2024-02-05T02:47:38.254Z,0.60
2024-02-05T02:48:38.347Z,0.91
2024-02-05T02:49:38.405Z,0.78
2024-02-05T02:50:38.387Z,0.75
2024-02-05T02:51:38.469Z,0.85
2024-02-05T02:52:38.441Z,0.83
2024-02-05T02:53:38.489Z,0.68
2024-02-05T02:54:38.571Z,0.67
2024-02-05T02:55:38.567Z,0.79
2024-02-05T02:56:38.612Z,0.73
2024-02-05T02:57:38.682Z,0.63
2024-02-05T02:58:38.717Z,0.58
2024-02-05T02:59:38.738Z,0.60
2024-02-05T03:00:38.913Z,0.85
2024-02-05T03:01:38.918Z,0.94
2024-02-05T03:02:38.863Z,0.86
2024-02-05T03:03:38.981Z,0.91
2024-02-05T03:04:39.033Z,0.55
2024-02-05T03:05:39.065Z,1.10
2024-02-05T03:06:39.090Z,0.95
2024-02-05T03:07:39.093Z,0.80
2024-02-05T03:08:39.140Z,0.64
2024-02-05T03:09:39.203Z,0.87
2024-02-05T03:10:39.225Z,0.71
2024-02-05T03:11:39.273Z,0.79
2024-02-05T03:12:39.387Z,1.06
2024-02-05T03:13:39.397Z,0.93
2024-02-05T03:14:39.389Z,0.93
2024-02-05T03:15:39.460Z,0.96
2024-02-05T03:16:39.472Z,0.89
2024-02-05T03:17:39.530Z,0.89
2024-02-05T03:18:39.637Z,0.78
2024-02-05T03:19:39.672Z,0.96
2024-02-05T03:20:39.659Z,0.85
2024-02-05T03:21:39.767Z,0.90
2024-02-05T03:22:39.880Z,0.64
2024-02-05T03:23:39.772Z,0.79
2024-02-05T03:24:39.885Z,0.68
2024-02-05T03:25:39.847Z,0.89
2024-02-05T03:26:39.855Z,0.70
2024-02-05T03:27:39.905Z,0.67
2024-02-05T03:28:39.920Z,0.69
2024-02-05T03:29:39.960Z,0.80
2024-02-05T03:30:40.278Z,0.96
2024-02-05T03:31:40.130Z,0.82
2024-02-05T03:32:40.963Z,0.92
2024-02-05T03:33:40.077Z,0.83
2024-02-05T03:34:40.222Z,0.60
2024-02-05T03:35:40.120Z,0.75
2024-02-05T03:36:40.182Z,0.67
2024-02-05T03:37:40.186Z,0.71
2024-02-05T03:38:40.231Z,0.72
2024-02-05T03:39:40.262Z,0.89
2024-02-05T03:40:40.270Z,0.76
2024-02-05T03:41:40.292Z,0.66
2024-02-05T03:42:40.332Z,0.86
2024-02-05T03:43:40.408Z,0.88
2024-02-05T03:44:40.436Z,0.58
2024-02-05T03:45:40.463Z,0.61
2024-02-05T03:46:40.464Z,0.67
2024-02-05T03:47:40.462Z,0.84
2024-02-05T03:48:40.537Z,0.66
2024-02-05T03:49:40.611Z,0.66
2024-02-05T03:50:40.538Z,0.61
2024-02-05T03:51:40.634Z,0.58
2024-02-05T03:52:40.552Z,0.70
2024-02-05T03:53:40.598Z,1.02
2024-02-05T03:54:40.638Z,0.76
2024-02-05T03:55:40.691Z,0.65
2024-02-05T03:56:43.343Z,1.03
2024-02-05T03:57:40.702Z,0.75
2024-02-05T03:58:40.688Z,0.79
2024-02-05T03:59:40.716Z,0.65
2024-02-05T04:00:40.776Z,0.82
2024-02-05T04:01:40.782Z,0.65
2024-02-05T04:02:40.750Z,0.93
2024-02-05T04:03:40.819Z,0.84
2024-02-05T04:04:40.841Z,0.69
2024-02-05T04:05:40.712Z,0.74
2024-02-05T04:06:40.892Z,0.70
2024-02-05T04:07:40.711Z,0.89
2024-02-05T04:08:40.718Z,0.86
2024-02-05T04:09:40.735Z,0.61
2024-02-05T04:10:40.737Z,0.69
2024-02-05T04:11:40.707Z,0.76
2024-02-05T04:12:40.742Z,0.52
2024-02-05T04:13:40.708Z,0.72
2024-02-05T04:14:47.877Z,0.71
2024-02-05T04:15:47.941Z,0.84
2024-02-05T04:16:47.862Z,0.79
2024-02-05T04:17:47.912Z,0.79
2024-02-05T04:18:47.851Z,0.81
2024-02-05T04:19:47.969Z,1.04
2024-02-05T04:20:47.858Z,0.74
2024-02-05T04:21:47.898Z,0.64
2024-02-05T04:22:47.863Z,0.82
2024-02-05T04:23:47.864Z,0.77
2024-02-05T04:24:47.926Z,0.58
2024-02-05T04:25:47.866Z,0.73
2024-02-05T04:26:47.869Z,0.95
2024-02-05T04:27:47.919Z,0.82
2024-02-05T04:28:47.876Z,0.86
2024-02-05T04:29:47.878Z,0.82
2024-02-05T04:30:47.899Z,0.54
2024-02-05T04:31:55.038Z,0.87
2024-02-05T04:32:55.099Z,0.68
2024-02-05T04:33:55.131Z,0.70
2024-02-05T04:34:55.229Z,0.67
2024-02-05T04:35:55.035Z,0.64
2024-02-05T04:36:55.109Z,0.91
2024-02-05T04:37:55.038Z,0.78
2024-02-05T04:38:55.044Z,0.78
2024-02-05T04:39:55.047Z,0.72
2024-02-05T04:40:55.038Z,0.87
2024-02-05T04:41:55.036Z,0.72
2024-02-05T04:42:55.067Z,0.86
2024-02-05T04:43:55.057Z,0.58
2024-02-05T04:44:55.041Z,0.73
2024-02-05T04:45:55.087Z,0.73
2024-02-05T04:46:55.093Z,0.71
2024-02-05T04:47:55.116Z,1.19
2024-02-05T04:48:55.119Z,0.87
2024-02-05T04:49:55.141Z,0.73
2024-02-05T04:50:55.073Z,0.80
2024-02-05T04:51:55.098Z,0.64
2024-02-05T04:52:55.109Z,0.68
2024-02-05T04:53:55.086Z,0.73
2024-02-05T04:54:55.132Z,0.78
2024-02-05T04:55:55.140Z,0.72
2024-02-05T04:56:55.076Z,0.73
2024-02-05T04:57:55.078Z,0.91
2024-02-05T04:58:55.071Z,0.43
2024-02-05T04:59:55.097Z,0.61
2024-02-05T05:00:55.136Z,0.79
2024-02-05T05:01:55.124Z,0.54
2024-02-05T05:02:55.096Z,1.02
2024-02-05T05:03:55.108Z,0.61
2024-02-05T05:04:55.093Z,0.60
2024-02-05T05:05:55.077Z,0.64
2024-02-05T05:06:55.237Z,0.69
2024-02-05T05:07:55.120Z,0.79
2024-02-05T05:08:55.088Z,1.08
2024-02-05T05:09:55.109Z,0.76
2024-02-05T05:10:55.083Z,0.78
2024-02-05T05:11:55.089Z,0.75
2024-02-05T05:12:55.120Z,0.68
2024-02-05T05:13:55.105Z,0.82
2024-02-05T05:14:55.110Z,0.77
2024-02-05T05:15:55.180Z,0.50
2024-02-05T05:16:55.224Z,0.69
2024-02-05T05:17:55.391Z,0.73
2024-02-05T05:18:55.450Z,0.78
2024-02-05T05:19:55.406Z,0.77
2024-02-05T05:20:55.436Z,0.67
2024-02-05T05:21:55.568Z,0.90
2024-02-05T05:22:55.538Z,0.93
2024-02-05T05:23:55.600Z,0.68
2024-02-05T05:24:55.686Z,0.69
2024-02-05T05:25:55.717Z,0.77
2024-02-05T05:26:55.773Z,0.78
2024-02-05T05:27:55.837Z,0.78
2024-02-05T05:28:55.910Z,0.86
2024-02-05T05:29:55.924Z,0.62
2024-02-05T05:30:56.059Z,0.70
2024-02-05T05:31:56.010Z,0.71
2024-02-05T05:32:56.090Z,0.78
2024-02-05T05:33:56.191Z,0.60
2024-02-05T05:34:56.226Z,1.10
2024-02-05T05:35:56.208Z,0.79
2024-02-05T05:36:56.271Z,0.63
2024-02-05T05:37:56.343Z,0.86
2024-02-05T05:38:56.347Z,0.66
2024-02-05T05:39:56.404Z,0.72
2024-02-05T05:40:56.427Z,0.51
2024-02-05T05:41:56.461Z,0.69
2024-02-05T05:42:56.546Z,0.69
2024-02-05T05:43:56.560Z,0.72
2024-02-05T05:44:56.595Z,0.83
2024-02-05T05:45:56.661Z,0.92
2024-02-05T05:46:56.693Z,0.78
2024-02-05T05:47:56.771Z,0.65
2024-02-05T05:48:56.815Z,0.75
2024-02-05T05:49:56.926Z,0.66
2024-02-05T05:50:56.939Z,0.75
2024-02-05T05:51:57.007Z,0.66
2024-02-05T05:52:56.982Z,0.79
2024-02-05T05:53:57.034Z,0.85
2024-02-05T05:54:57.072Z,0.66
2024-02-05T05:55:57.122Z,0.51
2024-02-05T05:56:57.170Z,0.73
2024-02-05T05:57:57.265Z,0.51
2024-02-05T05:58:57.282Z,0.73
2024-02-05T05:59:57.321Z,0.66
2024-02-05T06:00:57.479Z,0.73
2024-02-05T06:01:57.535Z,0.78
2024-02-05T06:02:57.462Z,0.82
2024-02-05T06:03:57.502Z,0.63
2024-02-05T06:04:57.563Z,1.05
2024-02-05T06:05:57.590Z,0.64
2024-02-05T06:06:57.693Z,0.71
2024-02-05T06:07:57.656Z,0.61
2024-02-05T06:08:57.701Z,0.94
2024-02-05T06:09:57.769Z,0.45
2024-02-05T06:10:57.788Z,0.76
2024-02-05T06:11:57.842Z,0.73
2024-02-05T06:12:57.895Z,0.56
2024-02-05T06:13:57.930Z,0.79
2024-02-05T06:14:57.953Z,0.74
2024-02-05T06:15:58.036Z,0.48
2024-02-05T06:16:58.045Z,1.11
2024-02-05T06:17:58.090Z,0.73
2024-02-05T06:18:58.308Z,0.65
2024-02-05T06:19:58.220Z,0.57
2024-02-05T06:20:58.207Z,0.66
2024-02-05T06:21:58.311Z,0.62
2024-02-05T06:22:58.292Z,0.96
2024-02-05T06:23:58.348Z,0.68
2024-02-05T06:24:58.408Z,0.75
2024-02-05T06:25:58.435Z,0.95
2024-02-05T06:26:58.473Z,0.90
2024-02-05T06:27:58.548Z,0.93
2024-02-05T06:28:58.583Z,1.05
2024-02-05T06:29:58.623Z,1.20
2024-02-05T06:30:58.667Z,1.27
2024-02-05T06:31:58.755Z,1.04
2024-02-05T06:32:58.757Z,1.39
2024-02-05T06:33:58.827Z,0.85
2024-02-05T06:34:58.902Z,1.05
2024-02-05T06:35:58.846Z,1.25
2024-02-05T06:36:58.919Z,1.10
2024-02-05T06:37:58.964Z,0.85
2024-02-05T06:38:58.961Z,1.20
2024-02-05T06:39:59.024Z,1.14
2024-02-05T06:40:59.019Z,0.86
2024-02-05T06:41:59.047Z,1.04
2024-02-05T06:42:59.101Z,1.20
2024-02-05T06:43:59.133Z,1.27
2024-02-05T06:44:59.687Z,1.52
2024-02-05T06:45:59.218Z,1.22
2024-02-05T06:46:59.225Z,1.47
2024-02-05T06:47:59.444Z,1.35
2024-02-05T06:48:59.511Z,1.15
2024-02-05T06:49:59.382Z,1.43
2024-02-05T06:50:59.367Z,1.31
2024-02-05T06:51:59.450Z,1.00
2024-02-05T06:52:59.425Z,1.20
2024-02-05T06:53:59.705Z,1.18
2024-02-05T06:54:59.561Z,1.44
2024-02-05T06:55:59.531Z,1.32
2024-02-05T06:56:59.556Z,1.21
2024-02-05T06:57:59.665Z,1.22
2024-02-05T06:58:59.625Z,0.98
2024-02-05T06:59:59.655Z,0.81
2024-02-05T07:00:59.746Z,0.97
2024-02-05T07:01:59.895Z,0.95
2024-02-05T07:02:59.755Z,1.17
2024-02-05T07:03:59.821Z,1.18
2024-02-05T07:04:59.917Z,1.36
2024-02-05T07:05:59.858Z,1.30
2024-02-05T07:06:59.953Z,1.35
2024-02-05T07:07:59.913Z,1.19
2024-02-05T07:08:59.947Z,0.90
2024-02-05T07:09:59.993Z,1.43
2024-02-05T07:11:00.017Z,1.52
2024-02-05T07:12:00.051Z,0.92
2024-02-05T07:13:00.099Z,1.66
2024-02-05T07:14:00.158Z,0.97
2024-02-05T07:15:00.183Z,1.22
2024-02-05T07:16:00.295Z,1.16
2024-02-05T07:17:00.227Z,1.56
2024-02-05T07:18:01.200Z,1.23
2024-02-05T07:19:00.330Z,1.06
2024-02-05T07:20:00.368Z,1.35
2024-02-05T07:21:01.204Z,1.33
2024-02-05T07:22:00.444Z,1.43
2024-02-05T07:23:00.437Z,1.17
2024-02-05T07:24:00.440Z,0.91
2024-02-05T07:25:00.505Z,1.24
2024-02-05T07:26:00.497Z,1.77
2024-02-05T07:27:01.205Z,1.70
2024-02-05T07:28:00.575Z,1.52
2024-02-05T07:29:00.566Z,1.79
2024-02-05T07:30:00.603Z,1.85
2024-02-05T07:31:00.597Z,1.41
2024-02-05T07:32:00.599Z,1.59
2024-02-05T07:33:01.675Z,1.68
2024-02-05T07:34:00.657Z,1.56
2024-02-05T07:35:00.626Z,1.45
2024-02-05T07:36:00.613Z,2.32
2024-02-05T07:37:00.611Z,1.87
2024-02-05T07:38:00.694Z,1.73
2024-02-05T07:39:00.668Z,1.87
2024-02-05T07:40:00.633Z,1.65
2024-02-05T07:41:00.619Z,1.75
2024-02-05T07:42:00.651Z,1.99
2024-02-05T07:43:00.743Z,2.10
2024-02-05T07:44:00.742Z,2.15
2024-02-05T07:45:00.792Z,1.87
2024-02-05T07:46:00.843Z,2.22
2024-02-05T07:47:00.864Z,2.40
2024-02-05T07:48:00.941Z,2.55
2024-02-05T07:49:01.090Z,2.11
2024-02-05T07:50:01.404Z,1.81
2024-02-05T07:51:01.003Z,2.36
2024-02-05T07:52:01.120Z,2.07
2024-02-05T07:53:01.113Z,2.30
2024-02-05T07:54:01.142Z,2.48
2024-02-05T07:55:04.519Z,1.86
2024-02-05T07:56:02.169Z,2.15
2024-02-05T07:57:01.170Z,2.14
2024-02-05T07:58:01.201Z,1.85
2024-02-05T07:59:01.169Z,1.92
2024-02-05T08:00:01.182Z,1.78
2024-02-05T08:01:01.249Z,1.72
2024-02-05T08:02:01.281Z,1.59
2024-02-05T08:03:01.204Z,1.79
2024-02-05T08:04:01.264Z,1.39
2024-02-05T08:05:01.290Z,1.71
2024-02-05T08:06:01.184Z,1.25
2024-02-05T08:07:01.352Z,1.20
2024-02-05T08:08:01.369Z,1.53
2024-02-05T08:09:01.386Z,1.67
2024-02-05T08:10:01.459Z,1.36
2024-02-05T08:11:01.461Z,1.77
2024-02-05T08:12:01.497Z,1.49
2024-02-05T08:13:01.566Z,1.71
2024-02-05T08:14:01.536Z,1.72
2024-02-05T08:15:01.553Z,2.12
2024-02-05T08:16:01.635Z,1.34
2024-02-05T08:17:01.595Z,1.67
2024-02-05T08:18:01.671Z,1.56
2024-02-05T08:19:01.726Z,1.93
2024-02-05T08:20:02.355Z,1.93
2024-02-05T08:21:01.823Z,2.17
2024-02-05T08:22:01.902Z,1.94
2024-02-05T08:23:01.921Z,2.06
2024-02-05T08:24:01.968Z,2.54
2024-02-05T08:25:02.815Z,2.33
2024-02-05T08:26:02.093Z,2.41
2024-02-05T08:27:02.142Z,2.40
2024-02-05T08:28:02.212Z,3.02
2024-02-05T08:29:02.242Z,1.99
2024-02-05T08:30:02.262Z,2.85
2024-02-05T08:31:02.310Z,2.81
2024-02-05T08:32:02.329Z,3.18
2024-02-05T08:33:02.400Z,2.76
2024-02-05T08:34:02.522Z,2.93
2024-02-05T08:35:02.691Z,2.69
2024-02-05T08:36:02.432Z,2.32
2024-02-05T08:37:02.494Z,2.68
2024-02-05T08:38:02.465Z,2.87
2024-02-05T08:39:03.488Z,2.23
2024-02-05T08:40:02.556Z,2.04
2024-02-05T08:41:02.494Z,2.23
2024-02-05T08:42:09.329Z,2.68
2024-02-05T08:43:03.524Z,2.74
2024-02-05T08:44:02.498Z,2.03
2024-02-05T08:45:04.046Z,2.30
2024-02-05T08:46:02.515Z,2.71
2024-02-05T08:47:02.554Z,2.77
2024-02-05T08:48:02.734Z,3.22
2024-02-05T08:49:02.782Z,3.48
2024-02-05T08:50:02.857Z,2.74
2024-02-05T08:51:02.727Z,2.44
2024-02-05T08:52:02.808Z,3.31
2024-02-05T08:53:02.787Z,2.88
2024-02-05T08:54:02.792Z,2.48
2024-02-05T08:55:02.834Z,2.82
2024-02-05T08:56:02.788Z,3.12
2024-02-05T08:57:03.054Z,3.30
2024-02-05T08:58:02.841Z,3.36
2024-02-05T08:59:02.792Z,3.10
2024-02-05T09:00:02.808Z,2.88
2024-02-05T09:01:03.922Z,2.56
2024-02-05T09:02:04.122Z,2.56
2024-02-05T09:03:02.926Z,2.45
2024-02-05T09:04:03.005Z,2.12
2024-02-05T09:05:03.083Z,2.50
2024-02-05T09:06:03.209Z,2.92
2024-02-05T09:07:03.408Z,2.85
2024-02-05T09:08:03.243Z,3.69
2024-02-05T09:09:03.294Z,3.46
2024-02-05T09:10:03.431Z,4.02
2024-02-05T09:11:04.261Z,3.35
2024-02-05T09:12:06.724Z,3.44
2024-02-05T09:13:03.547Z,3.59
2024-02-05T09:14:03.489Z,2.28
2024-02-05T09:15:04.248Z,3.10
2024-02-05T09:16:03.577Z,3.56
2024-02-05T09:17:03.547Z,2.37
2024-02-05T09:18:04.294Z,2.61
2024-02-05T09:19:03.553Z,3.20
2024-02-05T09:20:03.665Z,3.54
2024-02-05T09:21:03.492Z,3.27
2024-02-05T09:22:03.533Z,4.88
2024-02-05T09:23:03.492Z,4.68
2024-02-05T09:24:03.519Z,4.43
2024-02-05T09:25:03.651Z,4.21
2024-02-05T09:26:03.633Z,4.21
2024-02-05T09:27:03.707Z,3.75
2024-02-05T09:28:04.229Z,6.66
2024-02-05T09:29:03.651Z,3.97
2024-02-05T09:30:04.674Z,4.44
2024-02-05T09:31:11.463Z,3.38
2024-02-05T09:32:04.765Z,4.02
2024-02-05T09:33:03.766Z,4.44
2024-02-05T09:34:04.333Z,3.87
2024-02-05T09:35:03.774Z,4.03
2024-02-05T09:36:03.752Z,3.33
2024-02-05T09:37:04.326Z,3.13
2024-02-05T09:38:07.662Z,3.30
2024-02-05T09:39:04.721Z,4.65
2024-02-05T09:40:03.774Z,3.26
2024-02-05T09:41:03.727Z,3.14
2024-02-05T09:42:03.729Z,3.12
2024-02-05T09:43:03.752Z,3.04
2024-02-05T09:44:03.730Z,2.93
2024-02-05T09:45:03.759Z,2.78
2024-02-05T09:46:03.900Z,3.14
2024-02-05T09:47:03.782Z,2.42
2024-02-05T09:48:03.845Z,2.67
2024-02-05T09:49:04.291Z,2.57
2024-02-05T09:50:04.083Z,2.33
2024-02-05T09:51:04.007Z,3.23
2024-02-05T09:52:04.092Z,2.70
2024-02-05T09:53:04.045Z,2.37
2024-02-05T09:54:11.196Z,2.42
2024-02-05T09:55:05.144Z,3.07
2024-02-05T09:56:04.065Z,2.48
2024-02-05T09:57:04.041Z,2.59
2024-02-05T09:58:04.173Z,2.35
2024-02-05T09:59:04.061Z,2.32
2024-02-05T10:00:04.057Z,2.47
2024-02-05T10:01:04.369Z,2.63
2024-02-05T10:02:04.248Z,2.28
2024-02-05T10:03:04.068Z,2.28
2024-02-05T10:04:04.139Z,2.61
2024-02-05T10:05:04.206Z,2.78
2024-02-05T10:06:04.065Z,2.63
2024-02-05T10:07:04.137Z,2.32
2024-02-05T10:08:07.615Z,2.00
2024-02-05T10:09:04.073Z,2.43
2024-02-05T10:10:04.145Z,2.50
2024-02-05T10:11:04.233Z,2.20
2024-02-05T10:12:04.113Z,2.68
2024-02-05T10:13:04.120Z,4.30
2024-02-05T10:14:04.093Z,2.56
2024-02-05T10:15:04.087Z,2.40
2024-02-05T10:16:04.118Z,1.95
2024-02-05T10:17:05.917Z,2.89
2024-02-05T10:18:04.157Z,2.26
2024-02-05T10:19:04.162Z,2.51
2024-02-05T10:20:04.226Z,2.35
2024-02-05T10:21:04.110Z,2.81
2024-02-05T10:22:04.355Z,2.46
2024-02-05T10:23:04.157Z,2.15
2024-02-05T10:24:04.103Z,2.41
2024-02-05T10:25:04.135Z,2.33
2024-02-05T10:26:04.102Z,1.72
2024-02-05T10:27:04.166Z,2.17
2024-02-05T10:28:04.324Z,2.30
2024-02-05T10:29:04.114Z,2.11
2024-02-05T10:30:05.166Z,2.45
2024-02-05T10:31:04.181Z,2.07
2024-02-05T10:32:04.118Z,2.07
2024-02-05T10:33:04.165Z,1.76
2024-02-05T10:34:04.187Z,2.11
2024-02-05T10:35:04.287Z,2.16
2024-02-05T10:36:04.128Z,1.79
2024-02-05T10:37:04.169Z,1.75
2024-02-05T10:38:04.132Z,1.56
2024-02-05T10:39:04.125Z,1.60
2024-02-05T10:40:04.154Z,2.52
2024-02-05T10:41:04.144Z,1.53
2024-02-05T10:42:04.168Z,1.71
2024-02-05T10:43:04.168Z,2.02
2024-02-05T10:44:04.145Z,1.57
2024-02-05T10:45:04.192Z,1.68
2024-02-05T10:46:04.269Z,1.71
2024-02-05T10:47:04.268Z,1.71
2024-02-05T10:48:04.387Z,1.95
2024-02-05T10:49:04.417Z,1.96
2024-02-05T10:50:04.619Z,1.90
2024-02-05T10:51:04.449Z,1.62
2024-02-05T10:52:04.521Z,1.77
2024-02-05T10:53:04.525Z,2.03
2024-02-05T10:54:04.559Z,2.13
2024-02-05T10:55:04.660Z,1.76
2024-02-05T10:56:04.634Z,1.92
2024-02-05T10:57:04.720Z,2.01
2024-02-05T10:58:04.688Z,2.32
2024-02-05T10:59:04.722Z,1.63
2024-02-05T11:00:04.751Z,1.60
2024-02-05T11:01:04.900Z,1.72
2024-02-05T11:02:04.874Z,2.21
2024-02-05T11:03:05.756Z,1.88
2024-02-05T11:04:05.007Z,1.61
2024-02-05T11:05:04.984Z,2.05
2024-02-05T11:06:04.930Z,1.60
2024-02-05T11:07:05.049Z,1.72
2024-02-05T11:08:06.164Z,1.63
2024-02-05T11:09:05.025Z,1.76
2024-02-05T11:10:05.032Z,1.99
2024-02-05T11:11:04.974Z,1.30
2024-02-05T11:12:04.984Z,2.35
2024-02-05T11:13:04.994Z,2.10
2024-02-05T11:14:04.974Z,1.77
2024-02-05T11:15:05.025Z,1.57
2024-02-05T11:16:05.012Z,1.95
2024-02-05T11:17:04.984Z,2.15
2024-02-05T11:18:05.053Z,2.01
2024-02-05T11:19:05.084Z,1.66
2024-02-05T11:20:05.281Z,1.81
2024-02-05T11:21:05.004Z,1.71
2024-02-05T11:22:06.045Z,1.47
2024-02-05T11:23:04.999Z,1.48
2024-02-05T11:24:05.009Z,2.04
2024-02-05T11:25:05.864Z,1.92
2024-02-05T11:26:05.015Z,1.38
2024-02-05T11:27:05.070Z,1.52
2024-02-05T11:28:05.014Z,1.76
2024-02-05T11:29:07.264Z,1.40
2024-02-05T11:30:05.112Z,1.95
2024-02-05T11:31:05.060Z,1.55
2024-02-05T11:32:05.037Z,1.75
2024-02-05T11:33:05.049Z,1.58
2024-02-05T11:34:05.078Z,1.32
2024-02-05T11:35:05.212Z,1.68
2024-02-05T11:36:05.135Z,1.40
2024-02-05T11:37:05.087Z,1.21
2024-02-05T11:38:05.122Z,1.70
2024-02-05T11:39:05.149Z,1.52
2024-02-05T11:40:05.868Z,1.67
2024-02-05T11:41:05.219Z,1.52
2024-02-05T11:42:05.181Z,1.46
2024-02-05T11:43:05.265Z,1.46
2024-02-05T11:44:05.207Z,1.41
2024-02-05T11:45:05.219Z,1.73
2024-02-05T11:46:05.274Z,1.91
2024-02-05T11:47:05.290Z,1.29
2024-02-05T11:48:05.409Z,1.26
2024-02-05T11:50:05.521Z,1.82
2024-02-05T11:51:05.318Z,1.77
2024-02-05T11:52:05.375Z,1.82
2024-02-05T11:53:05.341Z,1.74
2024-02-05T11:54:05.374Z,1.58
2024-02-05T11:55:05.395Z,1.64
2024-02-05T11:56:05.393Z,1.78
2024-02-05T11:57:05.420Z,1.35
2024-02-05T11:58:05.472Z,1.34
2024-02-05T11:59:05.440Z,1.86
2024-02-05T12:00:05.460Z,1.59
2024-02-05T12:01:05.636Z,1.24
2024-02-05T12:02:05.579Z,1.68
2024-02-05T12:03:05.509Z,1.37
2024-02-05T12:04:05.723Z,1.37
2024-02-05T12:05:05.624Z,1.70
2024-02-05T12:06:05.571Z,1.34
2024-02-05T12:07:05.772Z,1.49
2024-02-05T12:08:05.796Z,1.52
2024-02-05T12:09:06.317Z,1.41
2024-02-05T12:10:05.669Z,1.75
2024-02-05T12:11:05.673Z,1.44
2024-02-05T12:12:05.689Z,1.16
2024-02-05T12:13:05.762Z,1.65
2024-02-05T12:14:05.739Z,1.31
2024-02-05T12:15:05.774Z,1.77
2024-02-05T12:16:05.843Z,1.82
2024-02-05T12:17:05.809Z,1.47
2024-02-05T12:18:05.895Z,1.48
2024-02-05T12:19:12.376Z,1.53
2024-02-05T12:20:06.937Z,1.43
2024-02-05T12:21:05.875Z,1.54
2024-02-05T12:22:05.911Z,1.47
2024-02-05T12:23:05.880Z,1.61
2024-02-05T12:24:05.885Z,1.11
2024-02-05T12:25:05.923Z,1.45
2024-02-05T12:26:08.176Z,1.43
2024-02-05T12:27:05.914Z,1.67
2024-02-05T12:28:05.951Z,1.30
2024-02-05T12:29:05.896Z,1.43
2024-02-05T12:30:05.933Z,1.87
2024-02-05T12:31:05.951Z,1.31
2024-02-05T12:32:05.886Z,1.22
2024-02-05T12:33:05.947Z,0.97
2024-02-05T12:34:06.021Z,1.70
2024-02-05T12:35:06.043Z,1.32
2024-02-05T12:36:05.925Z,1.31
2024-02-05T12:37:05.915Z,1.45
2024-02-05T12:38:05.910Z,1.67
2024-02-05T12:39:05.901Z,1.49
2024-02-05T12:40:05.904Z,1.43
2024-02-05T12:41:05.903Z,1.42
2024-02-05T12:42:05.908Z,1.39
2024-02-05T12:43:05.927Z,1.19
2024-02-05T12:44:05.905Z,1.26
2024-02-05T12:45:12.585Z,1.48
2024-02-05T12:46:07.011Z,1.19
2024-02-05T12:47:05.901Z,1.51
2024-02-05T12:48:06.000Z,1.40
2024-02-05T12:49:05.957Z,1.71
2024-02-05T12:50:05.969Z,1.55
2024-02-05T12:51:05.962Z,1.46
2024-02-05T12:52:05.985Z,1.34
2024-02-05T12:53:05.918Z,1.48
2024-02-05T12:54:05.921Z,1.58
2024-02-05T12:55:05.948Z,1.30
2024-02-05T12:56:05.918Z,1.70
2024-02-05T12:57:05.983Z,1.39
2024-02-05T12:58:06.037Z,1.42
2024-02-05T12:59:05.926Z,1.23
2024-02-05T13:00:06.062Z,1.52
2024-02-05T13:01:05.959Z,1.08
2024-02-05T13:02:06.030Z,1.46
2024-02-05T13:03:05.927Z,1.56
2024-02-05T13:04:05.985Z,1.10
2024-02-05T13:05:06.062Z,0.99
2024-02-05T13:06:06.111Z,1.34
2024-02-05T13:07:09.682Z,1.43
2024-02-05T13:08:07.080Z,1.13
2024-02-05T13:09:06.022Z,1.34
2024-02-05T13:10:06.042Z,1.38
2024-02-05T13:11:06.204Z,1.42
2024-02-05T13:12:06.045Z,1.35
2024-02-05T13:13:06.048Z,1.47
2024-02-05T13:14:06.036Z,1.64
2024-02-05T13:15:06.036Z,1.22
2024-02-05T13:16:06.064Z,1.40
2024-02-05T13:17:06.639Z,1.34
2024-02-05T13:18:06.128Z,1.40
2024-02-05T13:19:06.120Z,1.52
2024-02-05T13:20:06.103Z,1.58